createdAt,value
2023-03-31T00:00:27.653Z,15.80
2023-03-31T00:02:57.729Z,16.00
2023-03-31T00:05:29.171Z,16.20
2023-03-31T00:08:09.306Z,16.30
2023-03-31T00:10:40.128Z,16.30
2023-03-31T00:13:10.507Z,16.30
2023-03-31T00:15:40.340Z,16.50
2023-03-31T00:18:09.828Z,16.60
2023-03-31T00:20:40.060Z,16.70
2023-03-31T00:23:13.962Z,16.80
2023-03-31T00:25:43.532Z,17.00
2023-03-31T00:28:14.384Z,17.10
2023-03-31T00:30:44.772Z,17.30
2023-03-31T00:33:14.653Z,17.30
2023-03-31T00:35:46.199Z,17.30
2023-03-31T00:38:16.055Z,17.30
2023-03-31T00:40:49.264Z,17.40
2023-03-31T00:43:31.811Z,17.50
2023-03-31T00:46:18.161Z,17.50
2023-03-31T00:49:01.792Z,17.50
2023-03-31T00:51:33.915Z,17.60
2023-03-31T00:54:06.624Z,17.80
2023-03-31T00:56:39.625Z,17.80
2023-03-31T00:59:10.952Z,18.00
2023-03-31T01:01:44.765Z,18.10
2023-03-31T01:04:15.392Z,18.10
2023-03-31T01:06:52.957Z,18.20
2023-03-31T01:09:24.458Z,18.30
2023-03-31T01:11:53.815Z,18.40
2023-03-31T01:14:23.275Z,18.60
2023-03-31T01:16:55.561Z,18.70
2023-03-31T01:19:41.803Z,18.70
2023-03-31T01:22:32.969Z,18.80
2023-03-31T01:25:22.708Z,19.00
2023-03-31T01:27:58.780Z,19.30
2023-03-31T01:30:44.293Z,19.40
2023-03-31T01:33:14.140Z,19.60
2023-03-31T01:36:01.761Z,19.60
2023-03-31T01:38:49.834Z,19.60
2023-03-31T01:41:34.997Z,19.60
2023-03-31T01:44:20.330Z,19.50
2023-03-31T01:46:55.746Z,19.60
2023-03-31T01:49:32.410Z,19.50
2023-03-31T01:52:05.435Z,19.60
2023-03-31T01:54:34.869Z,19.70
2023-03-31T01:57:08.185Z,19.80
2023-03-31T01:59:42.820Z,20.10
2023-03-31T02:02:39.245Z,20.30
2023-03-31T02:05:11.820Z,20.50
2023-03-31T02:07:44.506Z,20.50
2023-03-31T02:10:15.376Z,20.70
2023-03-31T02:12:45.914Z,20.60
2023-03-31T02:15:18.437Z,20.60
2023-03-31T02:17:50.509Z,20.70
2023-03-31T02:20:20.929Z,20.50
2023-03-31T02:22:53.460Z,20.70
2023-03-31T02:25:25.297Z,20.80
2023-03-31T02:28:04.100Z,20.80
2023-03-31T02:30:41.129Z,20.90
2023-03-31T02:33:10.596Z,21.00
2023-03-31T02:35:40.173Z,21.00
2023-03-31T02:38:11.602Z,21.00
2023-03-31T02:40:42.190Z,21.20
2023-03-31T02:43:11.678Z,21.00
2023-03-31T02:45:42.975Z,20.80
2023-03-31T02:48:14.637Z,20.80
2023-03-31T02:51:12.861Z,21.00
2023-03-31T02:54:00.860Z,20.90
2023-03-31T02:56:48.777Z,20.90
2023-03-31T02:59:24.303Z,20.80
2023-03-31T03:02:12.654Z,20.50
2023-03-31T03:04:51.369Z,20.50
2023-03-31T03:07:28.345Z,20.50
2023-03-31T03:09:57.788Z,20.70
2023-03-31T03:12:49.939Z,20.80
2023-03-31T03:15:24.599Z,20.90
2023-03-31T03:17:54.360Z,20.80
2023-03-31T03:20:24.656Z,20.70
2023-03-31T03:22:54.091Z,20.40
2023-03-31T03:25:23.500Z,20.40
2023-03-31T03:27:54.747Z,20.40
2023-03-31T03:30:24.402Z,20.30
2023-03-31T03:32:55.041Z,20.30
2023-03-31T03:35:24.506Z,20.00
2023-03-31T03:37:53.978Z,20.00
2023-03-31T03:40:23.371Z,19.90
2023-03-31T03:42:52.916Z,20.20
2023-03-31T03:45:22.372Z,20.30
2023-03-31T03:47:51.995Z,20.40
2023-03-31T03:50:21.511Z,20.40
2023-03-31T03:52:50.921Z,20.30
2023-03-31T03:55:20.432Z,20.50
2023-03-31T03:57:50.266Z,20.40
2023-03-31T04:00:19.793Z,20.40
2023-03-31T04:02:49.233Z,20.40
2023-03-31T04:05:18.909Z,20.40
2023-03-31T04:07:48.396Z,20.40
2023-03-31T04:10:17.960Z,20.70
2023-03-31T04:12:47.434Z,20.50
2023-03-31T04:15:16.951Z,20.30
2023-03-31T04:17:52.559Z,20.50
2023-03-31T04:20:22.864Z,20.50
2023-03-31T04:22:52.347Z,20.50
2023-03-31T04:25:24.192Z,20.50
2023-03-31T04:27:57.476Z,20.50
2023-03-31T04:30:32.381Z,20.80
2023-03-31T04:33:02.955Z,20.90
2023-03-31T04:35:51.761Z,20.90
2023-03-31T04:38:25.273Z,21.00
2023-03-31T04:40:55.424Z,21.00
2023-03-31T04:43:24.932Z,21.20
2023-03-31T04:45:54.526Z,21.10
2023-03-31T04:48:24.041Z,21.00
2023-03-31T04:50:53.523Z,20.80
2023-03-31T04:53:23.212Z,20.80
2023-03-31T04:55:52.730Z,20.60
2023-03-31T04:58:22.285Z,20.60
2023-03-31T05:00:51.969Z,20.50
2023-03-31T05:03:22.051Z,20.50
2023-03-31T05:05:51.619Z,20.40
2023-03-31T05:08:21.548Z,20.20
2023-03-31T05:10:51.141Z,20.00
2023-03-31T05:13:20.641Z,20.00
2023-03-31T05:15:52.407Z,20.10
2023-03-31T05:18:22.066Z,20.00
2023-03-31T05:20:51.581Z,19.90
2023-03-31T05:23:21.037Z,19.70
2023-03-31T05:25:50.565Z,19.80
2023-03-31T05:28:19.998Z,19.80
2023-03-31T05:30:49.591Z,19.90
2023-03-31T05:33:19.026Z,19.90
2023-03-31T05:35:48.645Z,20.00
2023-03-31T05:38:18.153Z,20.10
2023-03-31T05:40:52.268Z,20.00
2023-03-31T05:43:21.813Z,20.00
2023-03-31T05:45:51.705Z,19.90
2023-03-31T05:48:21.444Z,19.80
2023-03-31T05:50:50.968Z,19.70
2023-03-31T05:53:20.395Z,19.80
2023-03-31T05:55:49.871Z,19.70
2023-03-31T07:50:37.026Z,16.70
2023-03-31T07:53:06.458Z,16.60
2023-03-31T07:55:36.023Z,16.50
2023-03-31T07:58:06.717Z,16.40
2023-03-31T08:00:36.472Z,16.30
2023-03-31T08:03:07.012Z,16.30
2023-03-31T08:05:36.462Z,16.30
2023-03-31T08:08:05.961Z,16.20
2023-03-31T08:10:35.300Z,16.20
2023-03-31T08:13:04.627Z,16.20
2023-03-31T08:15:33.994Z,16.00
2023-03-31T08:18:04.678Z,15.90
2023-03-31T08:20:34.138Z,15.90
2023-03-31T08:23:03.528Z,15.80
2023-03-31T08:25:34.013Z,15.80
2023-03-31T08:28:04.031Z,15.70
2023-03-31T08:30:33.589Z,15.60
2023-03-31T08:33:05.296Z,15.60
2023-03-31T08:35:36.309Z,15.50
2023-03-31T08:38:07.103Z,15.50
2023-03-31T08:40:37.070Z,15.50
2023-03-31T08:43:21.547Z,15.50
2023-03-31T08:45:53.001Z,15.40
2023-03-31T08:48:29.571Z,15.30
2023-03-31T08:53:51.923Z,15.30
2023-03-31T08:56:24.464Z,15.20
2023-03-31T08:58:54.449Z,15.20
2023-03-31T09:01:52.179Z,15.20
2023-03-31T09:04:42.557Z,15.20
2023-03-31T09:07:14.977Z,15.10
2023-03-31T09:09:47.827Z,15.00
2023-03-31T09:12:20.147Z,15.00
2023-03-31T09:14:56.026Z,15.00
2023-03-31T09:17:45.261Z,14.90
2023-03-31T09:20:26.683Z,14.90
2023-03-31T09:23:16.116Z,14.80
2023-03-31T09:25:46.560Z,14.80
2023-03-31T09:28:24.181Z,14.80
2023-03-31T09:30:53.987Z,14.80
2023-03-31T09:33:33.727Z,14.70
2023-03-31T09:36:04.710Z,14.50
2023-03-31T09:38:34.596Z,14.50
2023-03-31T09:41:04.937Z,14.50
2023-03-31T09:43:40.040Z,14.50
2023-03-31T09:46:18.870Z,14.50
2023-03-31T09:49:08.837Z,14.40
2023-03-31T09:51:40.634Z,14.30
2023-03-31T09:54:10.403Z,14.30
2023-03-31T09:56:47.854Z,14.30
2023-03-31T09:59:19.610Z,14.30
2023-03-31T10:01:50.212Z,14.30
2023-03-31T10:04:30.627Z,14.20
2023-03-31T10:07:01.649Z,14.20
2023-03-31T10:09:34.357Z,14.10
2023-03-31T10:12:18.938Z,14.20
2023-03-31T10:14:49.386Z,14.10
2023-03-31T10:17:20.178Z,14.20
2023-03-31T10:19:59.917Z,14.10
2023-03-31T10:22:31.016Z,14.10
2023-03-31T10:25:17.910Z,14.10
2023-03-31T10:27:49.417Z,14.00
2023-03-31T10:30:22.823Z,14.00
2023-03-31T10:32:54.723Z,14.00
2023-03-31T10:35:24.664Z,14.00
2023-03-31T10:37:57.274Z,13.90
2023-03-31T11:44:19.464Z,13.30
2023-03-31T11:46:52.007Z,13.30
2023-03-31T11:49:29.983Z,13.30
2023-03-31T11:51:59.317Z,13.30
2023-03-31T11:54:35.464Z,13.30
2023-03-31T11:57:07.818Z,13.30
2023-03-31T11:59:37.837Z,13.30
2023-03-31T12:02:15.800Z,13.30
2023-03-31T12:04:46.374Z,13.20
2023-03-31T12:07:32.225Z,13.20
2023-03-31T12:10:24.453Z,13.10
2023-03-31T12:13:13.231Z,13.00
2023-03-31T12:15:48.672Z,12.90
2023-03-31T12:18:25.098Z,12.90
2023-03-31T12:20:57.477Z,12.90
2023-03-31T12:23:29.165Z,12.90
2023-03-31T12:25:59.520Z,12.90
2023-03-31T12:28:29.564Z,12.90
2023-03-31T12:30:59.829Z,12.90
2023-03-31T12:33:29.158Z,12.90
2023-03-31T12:36:07.280Z,12.80
2023-03-31T12:38:40.916Z,12.80
2023-03-31T12:41:10.272Z,12.80
2023-03-31T18:07:39.882Z,9.80
2023-03-31T18:10:09.606Z,9.80
2023-03-31T18:12:40.036Z,9.80
2023-03-31T18:15:11.307Z,9.80
2023-03-31T18:17:40.751Z,9.80
2023-03-31T18:20:10.354Z,9.80
2023-03-31T18:22:39.824Z,9.80
2023-03-31T18:25:10.056Z,9.80
2023-03-31T18:27:39.907Z,9.80
2023-03-31T18:30:09.787Z,9.80
2023-03-31T18:32:40.261Z,9.80
2023-03-31T18:35:09.910Z,9.80
2023-03-31T18:37:39.299Z,9.80
2023-03-31T18:40:09.131Z,9.80
2023-03-31T18:42:38.542Z,9.80
2023-03-31T18:45:08.169Z,9.80
2023-03-31T18:47:37.801Z,9.80
2023-03-31T18:50:07.406Z,9.80
2023-03-31T18:52:37.825Z,9.80
2023-03-31T18:55:07.986Z,9.80
2023-03-31T18:57:37.772Z,9.80
2023-03-31T19:00:08.184Z,9.70
2023-03-31T19:02:38.204Z,9.80
2023-03-31T19:05:08.049Z,9.70
2023-03-31T19:07:37.961Z,9.70
2023-03-31T19:10:09.109Z,9.70
2023-03-31T19:12:38.720Z,9.70
2023-03-31T19:15:08.757Z,9.70
2023-03-31T19:17:38.285Z,9.70
2023-03-31T19:20:07.965Z,9.70
2023-03-31T19:22:37.584Z,9.80
2023-03-31T19:25:07.155Z,9.70
2023-03-31T19:27:36.982Z,9.70
2023-03-31T19:30:06.739Z,9.70
2023-03-31T19:32:36.180Z,9.80
2023-03-31T19:35:07.666Z,9.70
2023-03-31T19:37:37.147Z,9.80
2023-03-31T19:40:07.205Z,9.70
2023-03-31T19:42:36.572Z,9.80
2023-03-31T19:45:06.225Z,9.80
2023-03-31T19:47:35.705Z,9.80
2023-03-31T19:50:05.857Z,9.80
2023-03-31T19:52:35.283Z,9.80
2023-03-31T19:55:05.214Z,9.80
2023-03-31T19:57:36.885Z,9.80
2023-03-31T20:00:06.488Z,9.80
2023-03-31T20:02:36.376Z,9.80
2023-03-31T20:05:05.971Z,9.80
2023-03-31T20:07:35.331Z,9.70
2023-03-31T20:10:04.727Z,9.80
2023-03-31T20:12:34.059Z,9.80
2023-03-31T20:15:03.551Z,9.70
2023-03-31T20:17:33.031Z,9.70
2023-03-31T20:20:05.305Z,9.70
2023-03-31T20:22:34.812Z,9.70
2023-03-31T20:25:04.178Z,9.70
2023-03-31T20:27:33.517Z,9.70
2023-03-31T20:30:02.854Z,9.70
2023-03-31T20:32:32.351Z,9.80
2023-03-31T20:35:02.010Z,9.80
2023-03-31T20:37:32.028Z,9.80
2023-03-31T20:40:01.536Z,9.70
2023-03-31T20:42:31.645Z,9.70
2023-03-31T20:45:01.235Z,9.70
2023-03-31T20:47:31.301Z,9.70
2023-03-31T20:50:01.071Z,9.70
2023-03-31T20:52:30.478Z,9.70
2023-03-31T20:55:00.143Z,9.70
2023-03-31T20:57:30.686Z,9.70
2023-03-31T21:00:00.276Z,9.80
2023-03-31T21:02:29.725Z,9.70
2023-03-31T21:04:59.081Z,9.80
2023-03-31T21:07:28.502Z,9.80
2023-03-31T21:09:58.208Z,9.80
2023-03-31T21:12:27.573Z,9.80
2023-03-31T21:14:57.465Z,9.70
2023-03-31T21:17:26.973Z,9.80
2023-03-31T21:19:56.378Z,9.80
2023-03-31T21:22:26.842Z,9.80
2023-03-31T21:24:56.937Z,9.90
2023-03-31T21:27:26.318Z,9.90
2023-03-31T21:29:55.694Z,10.10
2023-03-31T21:32:25.241Z,10.20
2023-03-31T21:34:54.656Z,10.30
2023-03-31T21:37:24.847Z,10.30
2023-03-31T21:39:54.193Z,10.40
2023-03-31T21:42:25.342Z,10.50
2023-03-31T21:45:01.398Z,10.60
2023-03-31T21:47:32.333Z,10.70
2023-03-31T21:50:01.756Z,10.70
